Time;durP1;ratioP1;P1;durP2;ratioP2;P2;SDS_P1;SDS_P2;PMS_P1;PMS_P2;Temp;Humidity;BMP_temperature;BMP_pressure;BME280_temperature;BME280_humidity;BME280_pressure;Samples;Min_cycle;Max_cycle;Signal;HPM_P1;HPM_P2
2021/10/30 00:02:01;;;;;;;3.30;1.25;;;21.60;48.70;;;;;;4917528;29;20052;-61
2021/10/30 00:04:27;;;;;;;2.92;1.35;;;21.50;48.80;;;;;;4917768;29;20028;-60
2021/10/30 00:06:54;;;;;;;2.75;1.10;;;21.50;48.70;;;;;;4917736;29;20036;-60
2021/10/30 00:09:20;;;;;;;2.90;1.23;;;21.50;48.80;;;;;;4917737;29;20115;-60
2021/10/30 00:11:46;;;;;;;2.35;1.10;;;21.60;48.80;;;;;;4917454;29;20032;-60
2021/10/30 00:14:12;;;;;;;2.40;1.10;;;21.50;48.80;;;;;;4917401;29;20032;-60
2021/10/30 00:16:37;;;;;;;2.80;1.23;;;21.50;48.80;;;;;;4917362;29;20100;-61
2021/10/30 00:19:03;;;;;;;3.80;1.30;;;21.50;48.80;;;;;;4917323;29;20024;-60
2021/10/30 00:21:30;;;;;;;2.30;1.17;;;21.50;48.80;;;;;;4915963;29;20062;-60
2021/10/30 00:23:56;;;;;;;2.38;1.00;;;21.50;48.80;;;;;;4917231;29;20539;-60
2021/10/30 00:26:22;;;;;;;2.58;1.00;;;21.50;48.80;;;;;;4917196;29;20472;-60
2021/10/30 00:28:48;;;;;;;2.85;1.15;;;21.60;48.80;;;;;;4917260;29;20043;-60
2021/10/30 00:31:14;;;;;;;2.10;0.90;;;21.60;48.80;;;;;;4917120;29;20054;-60
2021/10/30 00:33:39;;;;;;;2.45;1.13;;;21.50;48.80;;;;;;4917157;29;20032;-60
2021/10/30 00:36:05;;;;;;;1.85;0.90;;;21.50;48.80;;;;;;4916466;29;20129;-60
2021/10/30 00:38:31;;;;;;;2.92;1.52;;;21.50;48.80;;;;;;4916888;29;20060;-60
2021/10/30 00:40:57;;;;;;;2.97;1.20;;;21.50;48.80;;;;;;4917040;29;20028;-60
2021/10/30 00:43:22;;;;;;;2.42;1.20;;;21.50;48.90;;;;;;4917009;29;20078;-60
2021/10/30 00:45:48;;;;;;;2.35;1.10;;;21.50;48.90;;;;;;4916959;29;20122;-61
2021/10/30 00:48:15;;;;;;;2.45;1.08;;;21.50;48.80;;;;;;4916893;29;20127;-60
2021/10/30 00:50:41;;;;;;;2.33;1.10;;;21.50;48.80;;;;;;4916911;29;20164;-60
2021/10/30 00:53:07;;;;;;;2.65;1.00;;;21.50;48.90;;;;;;4917156;29;20103;-61
2021/10/30 00:55:34;;;;;;;2.05;0.95;;;21.50;48.90;;;;;;4915605;29;20476;-61
2021/10/30 00:58:02;;;;;;;2.25;1.20;;;21.50;48.90;;;;;;4916790;29;20046;-61
2021/10/30 01:00:29;;;;;;;2.60;1.15;;;21.50;48.90;;;;;;4916801;29;20020;-61
2021/10/30 01:02:55;;;;;;;2.03;0.98;;;21.50;48.90;;;;;;4916815;29;20043;-61
2021/10/30 01:05:20;;;;;;;2.42;1.25;;;21.50;48.90;;;;;;4915518;29;20028;-61
2021/10/30 01:07:47;;;;;;;2.17;1.00;;;21.50;48.90;;;;;;4916605;29;20063;-61
2021/10/30 01:10:13;;;;;;;1.77;0.88;;;21.50;48.90;;;;;;4916697;29;20028;-61
2021/10/30 01:12:39;;;;;;;2.50;1.13;;;21.50;48.90;;;;;;4916866;29;20480;-61
2021/10/30 01:15:06;;;;;;;2.85;1.10;;;21.50;48.90;;;;;;4916884;29;20035;-61
2021/10/30 01:17:33;;;;;;;2.42;1.00;;;21.50;48.90;;;;;;4916666;29;20451;-61
2021/10/30 01:19:58;;;;;;;2.65;1.50;;;21.50;48.90;;;;;;4916663;29;20083;-61
2021/10/30 01:22:24;;;;;;;2.45;1.00;;;21.50;48.90;;;;;;4916732;29;20035;-61
2021/10/30 01:24:53;;;;;;;2.10;1.13;;;21.50;48.90;;;;;;4916708;29;20032;-61
2021/10/30 01:27:20;;;;;;;2.88;1.05;;;21.50;48.90;;;;;;4916635;29;20379;-61
2021/10/30 01:29:50;;;;;;;2.38;1.27;;;21.50;48.90;;;;;;4915242;29;20395;-61
2021/10/30 01:32:17;;;;;;;2.58;1.05;;;21.50;48.90;;;;;;4916750;29;20111;-61
2021/10/30 01:34:43;;;;;;;2.22;1.10;;;21.50;48.90;;;;;;4916804;29;20043;-61
2021/10/30 01:37:09;;;;;;;2.83;1.20;;;21.50;48.90;;;;;;4916342;29;20032;-61
2021/10/30 01:39:34;;;;;;;2.00;1.02;;;21.50;49.00;;;;;;4916482;29;20036;-61
2021/10/30 01:42:00;;;;;;;2.13;1.00;;;21.50;49.00;;;;;;4916400;29;20387;-61
2021/10/30 01:44:27;;;;;;;3.28;1.35;;;21.50;48.90;;;;;;4916373;29;20072;-60
2021/10/30 01:47:01;;;;;;;3.03;1.85;;;21.50;48.90;;;;;;4917071;29;20039;-61
2021/10/30 01:49:28;;;;;;;2.22;0.98;;;21.50;49.00;;;;;;4920288;29;20070;-61
2021/10/30 01:51:54;;;;;;;2.28;1.08;;;21.50;49.00;;;;;;4919982;29;20036;-61
2021/10/30 01:54:20;;;;;;;2.70;1.15;;;21.50;49.00;;;;;;4919946;29;20035;-61
2021/10/30 01:56:45;;;;;;;2.38;1.10;;;21.50;49.00;;;;;;4919933;29;20020;-61
2021/10/30 01:59:11;;;;;;;2.45;1.05;;;21.50;49.00;;;;;;4920116;29;20040;-61
2021/10/30 02:01:36;;;;;;;2.70;1.30;;;21.40;49.00;;;;;;4919797;29;20024;-61
2021/10/30 02:04:02;;;;;;;2.50;1.27;;;21.50;49.00;;;;;;4934360;29;20044;-60
2021/10/30 02:06:28;;;;;;;3.25;1.20;;;21.40;49.00;;;;;;4919971;29;20024;-61
2021/10/30 02:08:54;;;;;;;2.42;1.10;;;21.40;49.00;;;;;;4919482;29;20052;-61
2021/10/30 02:11:19;;;;;;;3.63;1.08;;;21.40;48.90;;;;;;4920155;29;20029;-60
2021/10/30 02:13:45;;;;;;;2.00;1.05;;;21.40;48.90;;;;;;4918340;29;20063;-61
2021/10/30 02:16:13;;;;;;;2.35;1.20;;;21.50;49.00;;;;;;4918317;29;20024;-61
2021/10/30 02:18:39;;;;;;;2.10;0.93;;;21.40;49.00;;;;;;4933858;29;20024;-61
2021/10/30 02:21:05;;;;;;;2.28;1.17;;;21.40;49.00;;;;;;4919380;29;20039;-61
2021/10/30 02:23:30;;;;;;;3.08;1.20;;;21.50;49.00;;;;;;4919357;29;20020;-61
2021/10/30 02:25:56;;;;;;;2.70;1.30;;;21.40;48.90;;;;;;4919579;29;20096;-61
2021/10/30 02:28:22;;;;;;;3.22;1.35;;;21.40;49.00;;;;;;4933852;29;20040;-61
2021/10/30 02:30:47;;;;;;;3.22;1.27;;;21.40;49.00;;;;;;4919251;29;20076;-61
2021/10/30 02:33:13;;;;;;;2.55;1.25;;;21.40;49.00;;;;;;4919210;29;20036;-62
2021/10/30 02:35:39;;;;;;;1.85;0.98;;;21.40;49.00;;;;;;4919320;29;20099;-61
2021/10/30 02:38:05;;;;;;;2.70;1.20;;;21.40;49.00;;;;;;4918903;29;20084;-61
2021/10/30 02:40:30;;;;;;;3.88;1.50;;;21.40;49.00;;;;;;4919136;29;20064;-61
2021/10/30 02:42:56;;;;;;;1.67;0.75;;;21.40;48.90;;;;;;4918999;29;20100;-60
2021/10/30 02:45:21;;;;;;;2.40;1.10;;;21.40;48.90;;;;;;4919157;29;20052;-60
2021/10/30 02:47:47;;;;;;;2.22;1.10;;;21.40;48.90;;;;;;4918911;29;20036;-61
2021/10/30 02:50:13;;;;;;;2.40;1.02;;;21.40;49.00;;;;;;4917714;29;20028;-61
2021/10/30 02:52:40;;;;;;;2.55;1.13;;;21.40;49.00;;;;;;4918800;29;20052;-61
2021/10/30 02:55:06;;;;;;;2.50;1.08;;;21.40;49.00;;;;;;4918877;29;20460;-60
2021/10/30 02:57:32;;;;;;;4.22;1.10;;;21.40;49.00;;;;;;4918736;29;20016;-61
2021/10/30 02:59:57;;;;;;;2.53;1.02;;;21.40;49.00;;;;;;4918302;29;20092;-61
2021/10/30 03:02:23;;;;;;;4.30;1.13;;;21.40;49.00;;;;;;4918656;29;20097;-61
2021/10/30 03:04:48;;;;;;;2.90;1.50;;;21.40;49.00;;;;;;4918659;29;20075;-61
2021/10/30 03:07:14;;;;;;;4.63;1.77;;;21.40;49.00;;;;;;4918455;29;20070;-61
2021/10/30 03:09:40;;;;;;;2.25;1.02;;;21.40;49.00;;;;;;4918842;29;20036;-61
2021/10/30 03:12:06;;;;;;;3.50;1.30;;;21.40;48.90;;;;;;4918544;29;20033;-61
2021/10/30 03:14:31;;;;;;;3.83;1.30;;;21.40;49.00;;;;;;4917238;29;20500;-61
2021/10/30 03:16:57;;;;;;;2.60;1.10;;;21.40;49.00;;;;;;4918391;29;20024;-61
2021/10/30 03:19:22;;;;;;;2.90;1.05;;;21.40;49.00;;;;;;4918390;29;20040;-61
2021/10/30 03:21:48;;;;;;;2.72;1.20;;;21.40;49.00;;;;;;4918264;29;20032;-61
2021/10/30 03:24:13;;;;;;;1.90;0.95;;;21.40;49.00;;;;;;4918376;29;20032;-61
2021/10/30 03:26:39;;;;;;;2.13;1.10;;;21.40;49.00;;;;;;4918296;29;20020;-61
2021/10/30 03:29:04;;;;;;;4.97;1.40;;;21.40;49.00;;;;;;4918166;29;20229;-61
2021/10/30 03:31:30;;;;;;;3.53;1.20;;;21.40;49.00;;;;;;4932815;29;20476;-61
2021/10/30 03:33:55;;;;;;;2.47;1.10;;;21.40;49.00;;;;;;4916868;29;20028;-61
2021/10/30 03:36:21;;;;;;;2.88;1.10;;;21.40;49.00;;;;;;4932675;29;20032;-61
2021/10/30 03:38:46;;;;;;;2.72;1.20;;;21.40;49.00;;;;;;4916547;29;20052;-61
2021/10/30 03:41:12;;;;;;;2.83;1.20;;;21.40;49.00;;;;;;4917864;29;20035;-61
2021/10/30 03:43:38;;;;;;;2.47;1.10;;;21.40;49.00;;;;;;4917908;29;20028;-61
2021/10/30 03:46:03;;;;;;;1.98;1.00;;;21.40;49.00;;;;;;4917862;29;20036;-61
2021/10/30 03:48:29;;;;;;;2.85;1.45;;;21.40;49.00;;;;;;4916549;29;20107;-61
2021/10/30 03:50:54;;;;;;;2.35;1.10;;;21.30;49.00;;;;;;4918015;29;20464;-61
2021/10/30 03:53:21;;;;;;;3.53;1.30;;;21.40;49.00;;;;;;4917943;29;20448;-61
2021/10/30 03:55:48;;;;;;;2.55;1.15;;;21.40;49.00;;;;;;4917726;29;20075;-61
2021/10/30 03:58:15;;;;;;;2.10;1.20;;;21.40;49.00;;;;;;4917618;29;20099;-61
2021/10/30 04:00:41;;;;;;;2.92;1.20;;;21.40;49.00;;;;;;4917675;29;20021;-61
2021/10/30 04:03:07;;;;;;;2.25;1.00;;;21.40;49.00;;;;;;4917466;29;20050;-61
2021/10/30 04:05:32;;;;;;;2.55;1.10;;;21.40;49.00;;;;;;4917478;29;20031;-61
2021/10/30 04:07:58;;;;;;;2.08;0.90;;;21.30;49.00;;;;;;4917389;29;20040;-61
2021/10/30 04:10:24;;;;;;;2.00;1.17;;;21.30;49.00;;;;;;4916552;29;20047;-61
2021/10/30 04:12:50;;;;;;;2.38;1.10;;;21.40;49.00;;;;;;4917350;29;20028;-61
2021/10/30 04:15:16;;;;;;;2.65;1.27;;;21.40;49.00;;;;;;4916079;29;20020;-60
2021/10/30 04:17:41;;;;;;;3.20;1.20;;;21.40;48.90;;;;;;4917334;29;20083;-60
2021/10/30 04:20:10;;;;;;;2.60;1.00;;;21.40;48.90;;;;;;4917178;29;20063;-60
2021/10/30 04:22:36;;;;;;;2.63;1.05;;;21.40;48.90;;;;;;4917203;29;20088;-60
2021/10/30 04:25:02;;;;;;;2.72;1.20;;;21.40;48.90;;;;;;4917240;29;20040;-61
2021/10/30 04:27:27;;;;;;;2.85;1.30;;;21.40;48.90;;;;;;4917232;29;20035;-61
2021/10/30 04:29:53;;;;;;;2.45;1.20;;;21.40;48.90;;;;;;4917195;29;20114;-61
2021/10/30 04:32:19;;;;;;;2.42;1.27;;;21.50;48.90;;;;;;4917097;29;20075;-61
2021/10/30 04:37:16;;;;;;;3.40;0.90;;;21.50;48.80;;;;;;4917097;29;20103;-61
2021/10/30 04:39:50;;;;;;;2.17;0.93;;;21.50;48.80;;;;;;4917044;29;20481;-61
2021/10/30 04:42:17;;;;;;;2.70;0.90;;;21.50;48.80;;;;;;4917301;29;20036;-61
2021/10/30 04:44:44;;;;;;;2.45;1.23;;;21.50;48.80;;;;;;4916960;29;20380;-61
2021/10/30 04:47:10;;;;;;;2.22;0.95;;;21.50;48.80;;;;;;4916849;29;20028;-61
2021/10/30 04:49:37;;;;;;;2.20;1.08;;;21.50;48.80;;;;;;4916885;29;20028;-61
2021/10/30 04:52:05;;;;;;;1.70;0.90;;;21.50;48.80;;;;;;4916884;29;20071;-61
2021/10/30 04:54:30;;;;;;;1.73;1.02;;;21.50;48.80;;;;;;4916898;29;20024;-61
2021/10/30 04:56:56;;;;;;;2.30;1.10;;;21.50;48.80;;;;;;4916830;29;20029;-61
2021/10/30 04:59:21;;;;;;;3.75;1.88;;;21.50;48.80;;;;;;4931436;29;20481;-61
2021/10/30 05:01:47;;;;;;;2.55;1.20;;;21.50;48.80;;;;;;4916727;29;20032;-61
2021/10/30 05:04:12;;;;;;;2.17;1.20;;;21.50;48.70;;;;;;4917040;29;20477;-61
2021/10/30 05:06:38;;;;;;;3.13;1.25;;;21.60;48.80;;;;;;4916939;29;20035;-61
2021/10/30 05:09:04;;;;;;;3.78;1.20;;;21.60;48.80;;;;;;4916575;29;20047;-61
2021/10/30 05:11:29;;;;;;;2.72;1.00;;;21.60;48.80;;;;;;4916698;29;20016;-61
2021/10/30 05:13:55;;;;;;;2.85;1.00;;;21.50;48.80;;;;;;4916723;29;20032;-61
2021/10/30 05:16:20;;;;;;;2.60;1.30;;;21.60;48.80;;;;;;4916565;29;20103;-61
2021/10/30 05:18:46;;;;;;;2.80;1.10;;;21.60;48.80;;;;;;4916882;29;20080;-61
2021/10/30 05:21:11;;;;;;;2.70;1.15;;;21.60;48.80;;;;;;4916610;29;20032;-61
2021/10/30 05:23:38;;;;;;;2.80;1.20;;;21.60;48.70;;;;;;4920090;29;20035;-60
2021/10/30 05:26:05;;;;;;;3.45;1.20;;;21.60;48.80;;;;;;4920531;29;20064;-61
2021/10/30 05:28:30;;;;;;;2.70;1.08;;;21.60;48.80;;;;;;4919150;29;20032;-61
2021/10/30 05:30:56;;;;;;;2.78;1.38;;;21.60;48.80;;;;;;4920464;29;20028;-62
2021/10/30 05:33:22;;;;;;;2.33;1.00;;;21.60;48.80;;;;;;4920504;29;20055;-61
2021/10/30 05:35:47;;;;;;;3.15;1.15;;;21.60;48.80;;;;;;4920614;29;20059;-61
2021/10/30 05:38:15;;;;;;;2.67;1.27;;;21.60;48.70;;;;;;4920110;29;20127;-61
2021/10/30 05:40:41;;;;;;;1.90;1.00;;;21.60;48.80;;;;;;4920230;29;20472;-60
2021/10/30 05:43:06;;;;;;;3.50;1.50;;;21.60;48.80;;;;;;4920168;29;20039;-61
2021/10/30 05:45:32;;;;;;;2.40;1.20;;;21.60;48.80;;;;;;4920377;29;20532;-60
2021/10/30 05:47:58;;;;;;;2.15;1.00;;;21.60;48.80;;;;;;4920169;29;20039;-61
2021/10/30 05:50:24;;;;;;;2.25;0.98;;;21.60;48.80;;;;;;4920225;29;20039;-61
2021/10/30 05:52:49;;;;;;;2.47;1.55;;;21.60;48.80;;;;;;4920271;29;20030;-61
2021/10/30 05:55:15;;;;;;;2.22;0.98;;;21.60;48.80;;;;;;4919987;29;20036;-61
2021/10/30 05:57:41;;;;;;;2.42;1.13;;;21.70;48.80;;;;;;4920056;29;20024;-61
2021/10/30 06:00:07;;;;;;;2.58;1.25;;;21.60;48.80;;;;;;4919772;29;20449;-61
2021/10/30 06:02:32;;;;;;;2.47;1.25;;;21.70;48.80;;;;;;4919827;29;20444;-61
2021/10/30 06:04:58;;;;;;;2.70;1.10;;;21.70;48.80;;;;;;4920068;29;20024;-60
2021/10/30 06:07:23;;;;;;;3.35;1.30;;;21.70;48.80;;;;;;4919673;29;20048;-61
2021/10/30 06:09:49;;;;;;;3.75;1.20;;;21.60;48.80;;;;;;4919670;29;20028;-61
2021/10/30 06:12:14;;;;;;;2.78;1.20;;;21.70;48.80;;;;;;4934211;29;20510;-61
2021/10/30 06:14:40;;;;;;;2.72;1.13;;;21.70;48.80;;;;;;4919444;29;20039;-60
2021/10/30 06:17:06;;;;;;;2.45;1.08;;;21.70;48.80;;;;;;4919510;29;20104;-61
2021/10/30 06:19:31;;;;;;;2.72;1.27;;;21.70;48.80;;;;;;4919347;29;20031;-60
2021/10/30 06:21:57;;;;;;;2.45;1.30;;;21.70;48.80;;;;;;4919639;29;20039;-61
2021/10/30 06:24:22;;;;;;;2.20;0.90;;;21.70;48.80;;;;;;4919324;29;20111;-61
2021/10/30 06:26:48;;;;;;;3.25;1.27;;;21.70;48.80;;;;;;4919313;29;20040;-60
2021/10/30 06:29:13;;;;;;;2.88;1.20;;;21.70;48.80;;;;;;4919199;29;20646;-61
2021/10/30 06:31:39;;;;;;;2.70;1.23;;;21.70;48.90;;;;;;4919211;29;20029;-61
2021/10/30 06:34:04;;;;;;;2.30;1.15;;;21.70;48.80;;;;;;4918195;29;20392;-61
2021/10/30 06:36:31;;;;;;;2.88;1.30;;;21.70;48.80;;;;;;4919034;29;20121;-61
2021/10/30 06:38:56;;;;;;;2.72;1.10;;;21.70;48.90;;;;;;4919070;29;20048;-61
2021/10/30 06:41:22;;;;;;;3.17;1.27;;;21.70;48.80;;;;;;4933574;29;20028;-61
2021/10/30 06:43:48;;;;;;;4.15;1.10;;;21.70;48.80;;;;;;4918951;29;20535;-61
2021/10/30 06:46:13;;;;;;;3.42;1.35;;;21.70;48.80;;;;;;4918888;29;20036;-61
2021/10/30 06:48:39;;;;;;;3.00;1.15;;;21.80;48.90;;;;;;4918687;29;20036;-60
2021/10/30 06:51:05;;;;;;;2.63;1.30;;;21.80;48.90;;;;;;4919020;29;20092;-61
2021/10/30 06:53:32;;;;;;;3.65;1.83;;;21.70;48.90;;;;;;4918900;29;20079;-60
2021/10/30 06:55:59;;;;;;;3.33;1.20;;;21.80;48.90;;;;;;4918769;29;20020;-61
2021/10/30 06:58:28;;;;;;;3.03;1.30;;;21.80;48.90;;;;;;4918752;29;20036;-61
2021/10/30 07:00:55;;;;;;;2.60;1.20;;;21.80;48.90;;;;;;4918680;29;20020;-61
2021/10/30 07:03:20;;;;;;;3.95;1.10;;;21.80;48.90;;;;;;4918644;29;20032;-61
2021/10/30 07:05:47;;;;;;;2.53;1.20;;;21.80;48.90;;;;;;4918524;29;20028;-61
2021/10/30 07:08:12;;;;;;;2.13;1.00;;;21.80;48.90;;;;;;4918569;29;20481;-61
2021/10/30 07:10:38;;;;;;;3.72;1.00;;;21.80;48.90;;;;;;4918530;29;20024;-61
2021/10/30 07:13:03;;;;;;;3.25;1.00;;;21.80;48.90;;;;;;4917231;29;20032;-61
2021/10/30 07:15:29;;;;;;;3.45;1.30;;;21.80;48.90;;;;;;4918430;29;20095;-61
2021/10/30 07:17:54;;;;;;;2.30;1.08;;;21.80;48.90;;;;;;4918377;29;20036;-61
2021/10/30 07:20:20;;;;;;;3.15;1.40;;;21.80;49.00;;;;;;4918405;29;20063;-61
2021/10/30 07:22:49;;;;;;;1.95;1.05;;;21.80;49.00;;;;;;4918227;29;20024;-62
2021/10/30 07:25:17;;;;;;;3.63;1.40;;;21.80;48.90;;;;;;4918231;29;20039;-61
2021/10/30 07:27:43;;;;;;;2.80;1.05;;;21.80;48.90;;;;;;4918087;29;20174;-61
2021/10/30 07:30:10;;;;;;;2.75;1.30;;;21.80;48.90;;;;;;4918420;29;20107;-61
2021/10/30 07:32:36;;;;;;;1.80;0.80;;;21.80;48.90;;;;;;4918187;29;20032;-61
2021/10/30 07:35:04;;;;;;;2.55;1.00;;;21.80;48.90;;;;;;4918028;29;20160;-61
2021/10/30 07:37:31;;;;;;;1.90;1.10;;;21.80;49.00;;;;;;4917842;29;20492;-61
2021/10/30 07:39:58;;;;;;;2.42;0.93;;;21.80;48.90;;;;;;4918010;29;20460;-61
2021/10/30 07:42:24;;;;;;;2.78;1.40;;;21.80;48.90;;;;;;4917824;29;20032;-61
2021/10/30 07:44:49;;;;;;;1.65;0.90;;;21.80;49.00;;;;;;4916517;29;20020;-61
2021/10/30 07:47:15;;;;;;;4.35;1.65;;;21.80;49.00;;;;;;4917702;29;20024;-61
2021/10/30 07:49:41;;;;;;;3.72;1.10;;;21.80;49.00;;;;;;4917813;29;20075;-62
2021/10/30 07:52:09;;;;;;;2.20;1.05;;;21.90;49.00;;;;;;4917760;29;20469;-61
2021/10/30 07:54:37;;;;;;;2.65;1.20;;;21.80;48.90;;;;;;4917693;29;20048;-61
2021/10/30 07:57:03;;;;;;;2.70;1.23;;;21.80;48.90;;;;;;4917941;29;20032;-61
2021/10/30 07:59:31;;;;;;;2.70;1.20;;;21.90;49.00;;;;;;4917614;29;20028;-61
2021/10/30 08:01:57;;;;;;;2.47;1.13;;;21.90;49.00;;;;;;4917654;29;20032;-61
2021/10/30 08:04:23;;;;;;;2.45;1.10;;;21.80;49.00;;;;;;4917594;29;20043;-61
2021/10/30 08:06:48;;;;;;;2.33;1.10;;;21.90;49.00;;;;;;4917513;29;20028;-62
2021/10/30 08:09:14;;;;;;;3.55;1.20;;;21.90;49.00;;;;;;4917492;29;20075;-61
2021/10/30 08:11:40;;;;;;;2.58;1.20;;;21.90;48.90;;;;;;4917318;29;20525;-61
2021/10/30 08:14:06;;;;;;;2.45;1.02;;;21.90;48.90;;;;;;4917572;29;20216;-62
2021/10/30 08:16:31;;;;;;;2.53;0.98;;;21.90;48.90;;;;;;4917569;29;20495;-61
2021/10/30 08:18:57;;;;;;;3.58;1.33;;;21.90;48.90;;;;;;4917662;29;20047;-62
2021/10/30 08:21:23;;;;;;;2.20;1.00;;;21.90;48.90;;;;;;4917397;29;20052;-61
2021/10/30 08:23:49;;;;;;;3.00;1.25;;;21.90;49.00;;;;;;4917322;29;20039;-61
2021/10/30 08:26:16;;;;;;;2.97;1.27;;;21.90;48.90;;;;;;4931800;29;20388;-61
2021/10/30 08:28:43;;;;;;;2.17;0.93;;;21.90;49.00;;;;;;4931695;29;20032;-61
2021/10/30 08:31:08;;;;;;;2.05;0.93;;;22.00;49.00;;;;;;4917389;29;20036;-61
2021/10/30 08:33:35;;;;;;;2.42;1.10;;;21.90;49.00;;;;;;4917148;29;20030;-61
2021/10/30 08:36:01;;;;;;;2.63;1.17;;;21.90;48.90;;;;;;4917121;29;20050;-61
2021/10/30 08:38:27;;;;;;;3.63;1.00;;;21.90;49.00;;;;;;4917003;29;20080;-60
2021/10/30 08:40:55;;;;;;;3.13;1.25;;;22.00;49.00;;;;;;4916845;29;20481;-61
2021/10/30 08:43:24;;;;;;;1.75;0.90;;;21.90;49.00;;;;;;4916886;29;20163;-61
2021/10/30 08:45:50;;;;;;;2.53;1.00;;;21.90;49.00;;;;;;4916774;29;20107;-61
2021/10/30 08:48:19;;;;;;;2.50;1.08;;;22.00;49.00;;;;;;4916795;29;20421;-61
2021/10/30 08:50:45;;;;;;;2.55;1.27;;;21.90;49.00;;;;;;4916782;29;20040;-61
2021/10/30 08:53:10;;;;;;;2.80;1.08;;;22.00;48.90;;;;;;4916995;29;20029;-61
2021/10/30 08:55:36;;;;;;;2.35;1.10;;;21.90;49.00;;;;;;4916768;29;20480;-61
2021/10/30 08:58:06;;;;;;;2.78;1.20;;;22.00;49.00;;;;;;4916242;29;20121;-61
2021/10/30 09:00:35;;;;;;;2.65;1.10;;;22.00;48.90;;;;;;4917063;29;20124;-60
2021/10/30 09:03:03;;;;;;;2.65;1.00;;;22.00;48.90;;;;;;4916873;29;20381;-60
2021/10/30 09:05:31;;;;;;;1.95;1.02;;;22.00;48.90;;;;;;4931386;29;20436;-61
2021/10/30 09:08:02;;;;;;;2.05;1.10;;;22.00;48.90;;;;;;4916888;29;20044;-61
2021/10/30 09:10:30;;;;;;;2.08;0.98;;;22.00;48.90;;;;;;4916929;29;20038;-61
2021/10/30 09:13:01;;;;;;;1.92;0.88;;;22.00;49.00;;;;;;4915432;29;20044;-61
2021/10/30 09:15:47;;;;;;;2.20;1.15;;;22.00;48.90;;;;;;4916889;29;20116;-61
2021/10/30 09:18:32;;;;;;;2.05;0.90;;;22.00;48.90;;;;;;4916610;29;20029;-61
2021/10/30 09:21:03;;;;;;;1.88;1.15;;;22.00;48.90;;;;;;4931249;29;20032;-61
2021/10/30 09:23:31;;;;;;;3.83;1.20;;;22.00;48.90;;;;;;4916638;29;20056;-61
2021/10/30 09:26:05;;;;;;;2.50;0.95;;;22.00;48.90;;;;;;4916646;29;20021;-61
2021/10/30 09:28:36;;;;;;;2.45;1.17;;;22.00;48.90;;;;;;4916516;29;20036;-61
2021/10/30 09:31:07;;;;;;;3.35;1.52;;;22.00;49.00;;;;;;4916602;29;20052;-61
2021/10/30 09:33:35;;;;;;;2.47;1.20;;;22.00;49.00;;;;;;4916574;29;20033;-61
2021/10/30 09:36:10;;;;;;;2.25;1.05;;;22.00;48.90;;;;;;4916358;29;20025;-61
2021/10/30 09:38:38;;;;;;;2.35;1.25;;;22.00;49.00;;;;;;4916196;29;20052;-61
2021/10/30 09:41:19;;;;;;;2.40;1.20;;;22.00;48.90;;;;;;4916076;29;20027;-61
2021/10/30 09:44:00;;;;;;;2.60;1.13;;;22.00;49.00;;;;;;4916612;29;20039;-61
2021/10/30 09:46:28;;;;;;;2.30;1.33;;;22.00;49.00;;;;;;4916435;29;20038;-61
2021/10/30 09:48:55;;;;;;;1.95;1.00;;;22.00;49.00;;;;;;4916090;29;20096;-61
2021/10/30 09:51:30;;;;;;;2.10;1.17;;;22.00;49.00;;;;;;4916148;29;20111;-61
2021/10/30 09:53:56;;;;;;;2.72;0.82;;;22.00;49.00;;;;;;4916174;29;20107;-61
2021/10/30 09:56:21;;;;;;;3.47;1.25;;;22.00;49.00;;;;;;4916236;29;20480;-61
2021/10/30 09:58:47;;;;;;;2.22;0.82;;;22.00;49.00;;;;;;4916085;29;20029;-61
2021/10/30 10:01:18;;;;;;;2.55;1.00;;;22.00;49.00;;;;;;4930987;29;20059;-61
2021/10/30 10:03:49;;;;;;;3.15;1.10;;;22.00;48.90;;;;;;4916046;29;20460;-62
2021/10/30 10:06:17;;;;;;;2.58;1.17;;;22.00;48.90;;;;;;4916316;29;20172;-62
2021/10/30 10:08:45;;;;;;;1.67;0.98;;;22.00;49.00;;;;;;4917993;29;20316;-61
2021/10/30 10:11:14;;;;;;;2.92;1.35;;;22.00;49.00;;;;;;4919498;29;20036;-61
2021/10/30 10:13:42;;;;;;;2.53;1.27;;;22.00;49.00;;;;;;4919498;29;20031;-61
2021/10/30 10:16:15;;;;;;;3.25;1.40;;;22.00;48.90;;;;;;4919587;29;20387;-61
2021/10/30 10:18:42;;;;;;;3.33;1.40;;;22.00;48.90;;;;;;4919429;29;20115;-61
2021/10/30 10:21:12;;;;;;;2.55;1.15;;;22.00;48.90;;;;;;4919357;29;20087;-61
2021/10/30 10:23:40;;;;;;;2.42;1.00;;;22.00;48.90;;;;;;4919468;29;20029;-61
2021/10/30 10:26:06;;;;;;;1.98;1.08;;;22.00;48.90;;;;;;4919289;29;20499;-61
2021/10/30 10:28:34;;;;;;;4.07;1.20;;;22.00;48.90;;;;;;4919123;29;20040;-61
2021/10/30 10:31:24;;;;;;;2.03;1.10;;;22.00;48.90;;;;;;4917899;29;20020;-60
2021/10/30 10:34:08;;;;;;;1.90;0.90;;;22.00;49.00;;;;;;4919403;29;20024;-62
2021/10/30 10:36:35;;;;;;;2.35;1.10;;;22.00;48.90;;;;;;4919228;29;20024;-62
2021/10/30 10:39:00;;;;;;;2.85;1.25;;;22.00;48.90;;;;;;4918730;29;20389;-62
2021/10/30 10:41:38;;;;;;;2.30;0.82;;;22.00;48.90;;;;;;4919023;29;20071;-62
2021/10/30 10:44:12;;;;;;;2.28;1.00;;;22.00;48.90;;;;;;4918937;29;20051;-61
2021/10/30 10:46:42;;;;;;;2.05;1.00;;;22.00;48.90;;;;;;4919163;29;20108;-61
2021/10/30 10:49:27;;;;;;;2.60;1.20;;;22.00;49.00;;;;;;4919002;29;20108;-62
2021/10/30 10:52:28;;;;;;;3.15;1.00;;;22.00;48.90;;;;;;4918883;29;20468;-62
2021/10/30 10:55:01;;;;;;;2.72;1.00;;;22.00;49.00;;;;;;4918973;29;20076;-61
2021/10/30 10:57:29;;;;;;;3.53;1.10;;;22.00;48.90;;;;;;4918910;29;20039;-61
2021/10/30 10:59:59;;;;;;;1.65;0.98;;;22.00;49.00;;;;;;4918662;29;20047;-62
2021/10/30 11:02:35;;;;;;;2.47;1.15;;;22.00;49.00;;;;;;4918850;29;20028;-61
2021/10/30 11:05:07;;;;;;;2.00;1.17;;;22.00;49.00;;;;;;4919050;29;20068;-62
2021/10/30 11:07:34;;;;;;;2.17;1.13;;;22.00;48.90;;;;;;4918486;29;20036;-62
2021/10/30 11:10:23;;;;;;;3.13;1.27;;;22.00;48.90;;;;;;4918520;29;20036;-61
2021/10/30 11:13:09;;;;;;;2.13;1.00;;;22.00;49.00;;;;;;4933067;29;20032;-62
2021/10/30 11:15:52;;;;;;;2.33;1.17;;;22.00;49.00;;;;;;4918364;29;20119;-61
2021/10/30 11:18:30;;;;;;;2.53;1.13;;;22.00;48.90;;;;;;4918450;29;20035;-61
2021/10/30 11:21:18;;;;;;;1.45;0.90;;;22.00;49.00;;;;;;4917704;29;20035;-61
2021/10/30 11:23:52;;;;;;;2.08;1.00;;;22.00;49.00;;;;;;4918171;29;20024;-61
2021/10/30 11:26:28;;;;;;;;;;;22.00;49.00;;;;;;4918696;29;20030;-62
2021/10/30 11:29:06;;;;;;;2.10;1.08;;;22.00;49.00;;;;;;4917955;29;19988;-62
2021/10/30 11:31:31;;;;;;;2.28;0.80;;;22.00;49.00;;;;;;4918109;29;20087;-62
2021/10/30 11:33:59;;;;;;;2.17;1.10;;;22.00;49.00;;;;;;4918114;29;20032;-62
2021/10/30 11:36:26;;;;;;;1.63;1.00;;;22.00;49.00;;;;;;4917961;29;20400;-62
2021/10/30 11:38:54;;;;;;;1.90;0.88;;;22.00;49.00;;;;;;4917912;29;20056;-61
2021/10/30 11:41:29;;;;;;;2.30;1.00;;;22.00;49.00;;;;;;4918154;29;20031;-61
2021/10/30 11:44:06;;;;;;;1.98;0.90;;;22.00;49.00;;;;;;4917915;29;20032;-62
2021/10/30 11:46:35;;;;;;;2.30;0.98;;;22.00;49.00;;;;;;4917931;29;20079;-61
2021/10/30 11:49:01;;;;;;;3.00;1.10;;;22.00;49.00;;;;;;4916533;29;20036;-61
2021/10/30 11:51:37;;;;;;;2.15;1.00;;;22.00;49.00;;;;;;4917787;29;20094;-61
2021/10/30 11:54:05;;;;;;;2.22;1.23;;;22.00;49.00;;;;;;4917775;29;20028;-61
2021/10/30 11:56:32;;;;;;;3.08;1.00;;;22.00;49.00;;;;;;4917491;29;20108;-61
2021/10/30 11:59:00;;;;;;;2.38;1.05;;;22.00;49.00;;;;;;4917593;29;20108;-61
2021/10/30 12:01:32;;;;;;;3.45;1.10;;;22.00;49.00;;;;;;4917821;29;20043;-61
2021/10/30 12:04:05;;;;;;;2.50;0.98;;;22.00;49.00;;;;;;4917653;29;20096;-61
2021/10/30 12:06:34;;;;;;;2.80;0.97;;;22.00;49.00;;;;;;4917296;29;20062;-61
2021/10/30 12:09:02;;;;;;;1.90;0.98;;;22.00;49.00;;;;;;4916932;29;20309;-61
2021/10/30 12:11:29;;;;;;;1.75;0.90;;;22.00;49.00;;;;;;4917238;29;20020;-61
2021/10/30 12:13:59;;;;;;;2.38;1.10;;;22.00;49.00;;;;;;4917292;29;20217;-61
2021/10/30 12:16:29;;;;;;;2.03;1.02;;;22.00;49.00;;;;;;4917308;29;20333;-61
2021/10/30 12:19:05;;;;;;;1.45;0.82;;;22.00;49.00;;;;;;4917056;29;20024;-62
2021/10/30 12:21:32;;;;;;;2.35;0.90;;;22.00;49.00;;;;;;4917265;29;20024;-62
2021/10/30 12:24:01;;;;;;;2.05;1.00;;;22.00;49.00;;;;;;4917252;29;20035;-61
2021/10/30 12:26:28;;;;;;;1.65;0.90;;;22.00;49.00;;;;;;4917484;29;20032;-60
2021/10/30 12:29:22;;;;;;;1.92;1.10;;;22.00;49.00;;;;;;4917059;29;20082;-61
2021/10/30 12:32:09;;;;;;;1.77;1.00;;;22.00;49.00;;;;;;4914045;29;20569;-59
2021/10/30 12:34:38;;;;;;;1.98;1.00;;;22.00;49.00;;;;;;4917116;29;20060;-61
2021/10/30 12:37:24;;;;;;;3.08;1.08;;;22.00;49.00;;;;;;4916731;29;20021;-61
2021/10/30 12:39:57;;;;;;;2.00;1.10;;;22.00;49.00;;;;;;4916973;29;20496;-61
2021/10/30 12:42:22;;;;;;;4.13;1.10;;;22.00;49.00;;;;;;4915438;29;20079;-61
2021/10/30 12:44:50;;;;;;;2.15;1.20;;;22.00;49.00;;;;;;4916968;29;20472;-61
2021/10/30 12:47:16;;;;;;;2.63;1.13;;;22.00;49.00;;;;;;4916729;29;20028;-60
2021/10/30 12:49:43;;;;;;;3.83;1.45;;;22.00;49.00;;;;;;4916839;29;20117;-61
2021/10/30 12:52:14;;;;;;;2.13;1.02;;;22.00;49.00;;;;;;4915622;29;20148;-61
2021/10/30 12:55:00;;;;;;;3.67;1.33;;;22.00;48.90;;;;;;4916824;29;20024;-61